Sns 262 — FGA2745 — position and weather

sailwx.info

Track history (hours):
 
Tides and Currents Weather Stations Pressure Air Temp Water Temp Dewpoint Dewpoint Depression Visibility Wind Speed Wind Dir Waves Ship Positions

Sns 262

Last reported at 2017-Aug-21 15:45 UTC. Time now 2017-Aug-23 06:06 UTC.
Position N 43°32' E 007°02'.

Length 10 m.

Type: SAR. MMSI: 227008150.

Date/timePositionNaut miles runAvg speedWind from/ knotsBaromVisibWave heightAir tempDewpointWater temp
2017-Aug-21 15:45N 43°32' E 007°02'0 1.4
2017-Aug-21 15:25N 43°32' E 007°02'0 0.8
2017-Aug-21 15:00N 43°32' E 007°02'1 0.0
2017-Aug-20 17:26N 43°32' E 007°02'1 2.3
2017-Aug-20 16:53N 43°33' E 007°01'2 5.8
2017-Aug-20 16:30N 43°31' E 007°02'4 3.4
2017-Aug-20 15:17N 43°32' E 006°57'1 5.2
2017-Aug-20 15:00N 43°32' E 006°59'  
2017-Aug-17 19:19N 43°32' E 007°02'1 2.1
2017-Aug-17 18:48N 43°33' E 007°01'2 5.8
2017-Aug-17 18:30N 43°31' E 007°02'3 0.3
2017-Aug-17 09:12N 43°32' E 007°05'210.1
2017-Aug-17 08:59N 43°31' E 007°03'2 0.1
2017-Aug-16 17:05N 43°33' E 007°01'1 1.4
2017-Aug-16 16:08N 43°32' E 007°03'1 4.9
2017-Aug-16 16:00N 43°32' E 007°02'0 0.3
2017-Aug-16 15:21N 43°32' E 007°02'2 5.2
2017-Aug-16 14:59N 43°30' E 007°02'2 0.5
2017-Aug-16 10:13N 43°33' E 007°01'1 5.1
2017-Aug-16 09:57N 43°32' E 007°02'1 0.1
2017-Aug-15 21:15N 43°33' E 007°01'1 1.1
2017-Aug-15 19:53N 43°32' E 007°03'2 5.0
2017-Aug-15 19:30N 43°30' E 007°03'3 0.1
2017-Aug-14 20:56N 43°33' E 007°01'1 1.2
2017-Aug-14 20:10N 43°32' E 007°02'0 2.8
2017-Aug-14 20:00N 43°32' E 007°02'1 0.0
2017-Aug-13 14:53N 43°33' E 007°01'4 4.3
2017-Aug-13 14:03N 43°31' E 006°57'0 7.5
2017-Aug-13 14:00N 43°31' E 006°57'4 7.2
2017-Aug-13 13:30N 43°31' E 007°02'2 0.1
2017-Aug-11 19:29N 43°33' E 007°01'1 1.5
2017-Aug-11 18:59N 43°32' E 007°02'0 0.3
2017-Aug-11 17:35N 43°32' E 007°03'1 5.3
2017-Aug-11 17:27N 43°32' E 007°02'  
Track history (hours):
 
Tides and Currents Weather Stations Pressure Air Temp Water Temp Dewpoint Dewpoint Depression Visibility Wind Speed Wind Dir Waves Ship Positions

Sns 262

Last reported at 2017-Aug-21 15:45 UTC. Time now 2017-Aug-23 06:06 UTC.
Position N 43°32' E 007°02'.

Length 10 m.

Type: SAR. MMSI: 227008150.

Date/timePositionNaut miles runAvg speedWind from/ knotsBaromVisibWave heightAir tempDewpointWater temp
2017-Aug-21 15:45N 43°32' E 007°02'0 1.4
2017-Aug-21 15:25N 43°32' E 007°02'0 0.8
2017-Aug-21 15:00N 43°32' E 007°02'1 0.0
2017-Aug-20 17:26N 43°32' E 007°02'1 2.3
2017-Aug-20 16:53N 43°33' E 007°01'2 5.8
2017-Aug-20 16:30N 43°31' E 007°02'4 3.4
2017-Aug-20 15:17N 43°32' E 006°57'1 5.2
2017-Aug-20 15:00N 43°32' E 006°59'  
2017-Aug-17 19:19N 43°32' E 007°02'1 2.1
2017-Aug-17 18:48N 43°33' E 007°01'2 5.8
2017-Aug-17 18:30N 43°31' E 007°02'3 0.3
2017-Aug-17 09:12N 43°32' E 007°05'210.1
2017-Aug-17 08:59N 43°31' E 007°03'2 0.1
2017-Aug-16 17:05N 43°33' E 007°01'1 1.4
2017-Aug-16 16:08N 43°32' E 007°03'1 4.9
2017-Aug-16 16:00N 43°32' E 007°02'0 0.3
2017-Aug-16 15:21N 43°32' E 007°02'2 5.2
2017-Aug-16 14:59N 43°30' E 007°02'2 0.5
2017-Aug-16 10:13N 43°33' E 007°01'1 5.1
2017-Aug-16 09:57N 43°32' E 007°02'1 0.1
2017-Aug-15 21:15N 43°33' E 007°01'1 1.1
2017-Aug-15 19:53N 43°32' E 007°03'2 5.0
2017-Aug-15 19:30N 43°30' E 007°03'3 0.1
2017-Aug-14 20:56N 43°33' E 007°01'1 1.2
2017-Aug-14 20:10N 43°32' E 007°02'0 2.8
2017-Aug-14 20:00N 43°32' E 007°02'1 0.0
2017-Aug-13 14:53N 43°33' E 007°01'4 4.3
2017-Aug-13 14:03N 43°31' E 006°57'0 7.5
2017-Aug-13 14:00N 43°31' E 006°57'4 7.2
2017-Aug-13 13:30N 43°31' E 007°02'2 0.1
2017-Aug-11 19:29N 43°33' E 007°01'1 1.5
2017-Aug-11 18:59N 43°32' E 007°02'0 0.3
2017-Aug-11 17:35N 43°32' E 007°03'1 5.3
2017-Aug-11 17:27N 43°32' E 007°02'  

Dump ship's entire track history